createdAt,value
2022-08-04T00:00:48.449Z,21.97
2022-08-04T00:01:48.479Z,21.97
2022-08-04T00:02:48.426Z,21.97
2022-08-04T00:03:48.399Z,21.94
2022-08-04T00:04:48.470Z,21.88
2022-08-04T00:05:48.389Z,21.81
2022-08-04T00:06:48.358Z,21.78
2022-08-04T00:07:48.370Z,21.78
2022-08-04T00:08:48.355Z,21.78
2022-08-04T00:09:48.378Z,21.78
2022-08-04T00:10:48.310Z,21.78
2022-08-04T00:11:48.300Z,21.75
2022-08-04T00:12:48.290Z,21.74
2022-08-04T00:13:52.684Z,21.70
2022-08-04T00:14:49.275Z,21.70
2022-08-04T00:15:48.240Z,21.70
2022-08-04T00:16:48.231Z,21.70
2022-08-04T00:17:48.231Z,21.74
2022-08-04T00:18:48.211Z,21.72
2022-08-04T00:19:48.209Z,21.68
2022-08-04T00:20:48.191Z,21.66
2022-08-04T00:21:48.223Z,21.63
2022-08-04T00:22:48.152Z,21.62
2022-08-04T00:24:11.968Z,21.59
2022-08-04T00:24:49.143Z,21.58
2022-08-04T00:25:48.112Z,21.58
2022-08-04T00:26:48.105Z,21.60
2022-08-04T00:27:48.100Z,21.60
2022-08-04T00:28:48.072Z,21.59
2022-08-04T00:29:48.073Z,21.58
2022-08-04T00:30:49.053Z,21.59
2022-08-04T00:31:55.889Z,21.60
2022-08-04T00:32:49.023Z,21.60
2022-08-04T00:33:48.013Z,21.60
2022-08-04T00:34:48.015Z,21.58
2022-08-04T00:35:47.984Z,21.56
2022-08-04T00:36:47.973Z,21.54
2022-08-04T00:37:47.983Z,21.54
2022-08-04T00:38:47.954Z,21.54
2022-08-04T00:39:47.942Z,21.51
2022-08-04T00:40:47.913Z,21.50
2022-08-04T00:41:56.321Z,21.51
2022-08-04T00:42:58.666Z,21.48
2022-08-04T00:43:48.872Z,21.47
2022-08-04T00:44:47.885Z,21.45
2022-08-04T00:46:13.454Z,21.45
2022-08-04T00:46:48.837Z,21.45
2022-08-04T00:47:47.832Z,21.47
2022-08-04T00:48:47.814Z,21.45
2022-08-04T00:49:47.806Z,21.45
2022-08-04T00:50:47.783Z,21.41
2022-08-04T00:51:47.776Z,21.38
2022-08-04T00:52:48.766Z,21.35
2022-08-04T00:53:49.632Z,21.35
2022-08-04T00:54:47.755Z,21.37
2022-08-04T00:55:47.724Z,21.37
2022-08-04T00:56:47.704Z,21.35
2022-08-04T00:57:47.696Z,21.33
2022-08-04T00:58:47.685Z,21.33
2022-08-04T00:59:47.684Z,21.33
2022-08-04T01:00:47.692Z,21.32
2022-08-04T01:01:47.681Z,21.30
2022-08-04T01:02:47.628Z,21.28
2022-08-04T01:03:47.609Z,21.28
2022-08-04T01:04:47.598Z,21.28
2022-08-04T01:05:47.598Z,21.26
2022-08-04T01:06:56.140Z,21.28
2022-08-04T01:07:48.568Z,21.28
2022-08-04T01:08:47.568Z,21.28
2022-08-04T01:09:47.528Z,21.25
2022-08-04T01:10:47.558Z,21.23
2022-08-04T01:11:57.471Z,21.23
2022-08-04T01:12:48.490Z,21.20
2022-08-04T01:13:47.478Z,21.20
2022-08-04T01:14:47.471Z,21.19
2022-08-04T01:15:56.486Z,21.15
2022-08-04T01:16:48.460Z,21.17
2022-08-04T01:17:47.439Z,21.15
2022-08-04T01:18:47.409Z,21.15
2022-08-04T01:19:47.399Z,21.13
2022-08-04T01:20:47.389Z,21.10
2022-08-04T01:21:47.390Z,21.10
2022-08-04T01:22:47.360Z,21.08
2022-08-04T01:23:47.349Z,21.05
2022-08-04T01:24:47.348Z,21.01
2022-08-04T01:25:47.320Z,21.00
2022-08-04T01:26:57.647Z,20.96
2022-08-04T01:27:48.302Z,20.93
2022-08-04T01:28:47.284Z,20.92
2022-08-04T01:29:48.784Z,20.90
2022-08-04T01:30:47.267Z,20.86
2022-08-04T01:31:47.261Z,20.88
2022-08-04T01:32:47.221Z,20.85
2022-08-04T01:33:58.653Z,20.83
2022-08-04T01:34:48.186Z,20.85
2022-08-04T01:35:48.463Z,20.85
2022-08-04T01:36:50.078Z,20.83
2022-08-04T01:37:47.171Z,20.82
2022-08-04T01:38:47.141Z,20.78
2022-08-04T01:39:47.128Z,20.77
2022-08-04T01:40:47.110Z,20.74
2022-08-04T01:41:58.297Z,20.74
2022-08-04T01:42:48.103Z,20.75
2022-08-04T01:43:47.081Z,20.75
2022-08-04T01:44:47.072Z,20.77
2022-08-04T01:45:47.050Z,20.77
2022-08-04T01:46:47.071Z,20.77
2022-08-04T01:47:47.035Z,20.75
2022-08-04T01:48:47.003Z,20.75
2022-08-04T01:49:47.001Z,20.75
2022-08-04T01:50:46.982Z,20.74
2022-08-04T01:51:47.983Z,20.71
2022-08-04T01:52:50.949Z,20.71
2022-08-04T01:53:46.942Z,20.73
2022-08-04T01:54:46.922Z,20.73
2022-08-04T01:55:55.244Z,20.70
2022-08-04T01:56:47.922Z,20.70
2022-08-04T01:57:46.969Z,20.70
2022-08-04T01:58:46.881Z,20.67
2022-08-04T01:59:46.863Z,20.64
2022-08-04T02:00:46.842Z,20.63
2022-08-04T02:01:46.946Z,20.63
2022-08-04T02:02:46.890Z,20.63
2022-08-04T02:04:22.099Z,20.63
2022-08-04T02:04:47.794Z,20.58
2022-08-04T02:06:03.414Z,20.56
2022-08-04T02:06:47.783Z,20.55
2022-08-04T02:07:46.766Z,20.53
2022-08-04T02:08:46.744Z,20.50
2022-08-04T02:09:53.846Z,20.52
2022-08-04T02:10:47.712Z,20.50
2022-08-04T02:11:46.724Z,20.50
2022-08-04T02:12:46.683Z,20.49
2022-08-04T02:13:46.676Z,20.49
2022-08-04T02:14:46.662Z,20.49
2022-08-04T02:15:46.645Z,20.48
2022-08-04T02:16:46.658Z,20.46
2022-08-04T02:17:47.635Z,20.44
2022-08-04T02:18:46.605Z,20.48
2022-08-04T02:19:46.596Z,20.48
2022-08-04T02:20:46.583Z,20.48
2022-08-04T02:21:46.565Z,20.46
2022-08-04T02:22:46.573Z,20.44
2022-08-04T02:23:46.546Z,20.46
2022-08-04T02:24:46.525Z,20.44
2022-08-04T02:25:46.515Z,20.42
2022-08-04T02:26:46.616Z,20.39
2022-08-04T02:27:59.418Z,20.39
2022-08-04T02:28:47.474Z,20.37
2022-08-04T02:29:46.468Z,20.37
2022-08-04T02:30:46.436Z,20.39
2022-08-04T02:31:46.437Z,20.39
2022-08-04T02:32:46.430Z,20.39
2022-08-04T02:33:46.418Z,20.37
2022-08-04T02:34:46.396Z,20.36
2022-08-04T02:35:46.389Z,20.34
2022-08-04T02:36:46.386Z,20.33
2022-08-04T02:37:46.367Z,20.32
2022-08-04T02:38:46.338Z,20.32
2022-08-04T02:39:48.742Z,20.30
2022-08-04T02:40:46.320Z,20.29
2022-08-04T02:41:46.319Z,20.24
2022-08-04T02:42:46.286Z,20.19
2022-08-04T02:43:50.832Z,20.17
2022-08-04T02:44:47.249Z,20.14
2022-08-04T02:45:46.247Z,20.12
2022-08-04T02:46:46.240Z,20.11
2022-08-04T02:48:28.846Z,20.10
2022-08-04T02:48:47.199Z,20.08
2022-08-04T02:49:46.199Z,20.03
2022-08-04T02:50:46.179Z,20.03
2022-08-04T02:51:46.199Z,20.03
2022-08-04T02:52:46.150Z,20.02
2022-08-04T02:53:46.139Z,20.03
2022-08-04T02:54:46.121Z,20.02
2022-08-04T02:55:50.834Z,20.03
2022-08-04T02:56:47.100Z,20.02
2022-08-04T02:57:46.090Z,20.02
2022-08-04T02:58:46.071Z,20.03
2022-08-04T02:59:46.058Z,20.02
2022-08-04T03:00:46.088Z,20.03
2022-08-04T03:01:57.129Z,20.04
2022-08-04T03:02:47.019Z,20.04
2022-08-04T03:03:46.002Z,20.03
2022-08-04T03:04:46.000Z,20.04
2022-08-04T03:06:00.679Z,20.02
2022-08-04T03:06:46.991Z,19.97
2022-08-04T03:07:45.952Z,19.97
2022-08-04T03:08:45.932Z,19.99
2022-08-04T03:09:45.922Z,19.97
2022-08-04T03:10:46.917Z,19.96
2022-08-04T03:11:45.912Z,19.96
2022-08-04T03:12:45.890Z,19.94
2022-08-04T03:13:45.864Z,19.90
2022-08-04T03:14:45.863Z,19.93
2022-08-04T03:15:45.842Z,19.89
2022-08-04T03:16:45.850Z,19.89
2022-08-04T03:17:52.420Z,19.85
2022-08-04T03:18:46.804Z,19.84
2022-08-04T03:19:45.784Z,19.84
2022-08-04T03:20:45.774Z,19.79
2022-08-04T03:21:45.781Z,19.81
2022-08-04T03:23:06.546Z,19.79
2022-08-04T03:23:46.735Z,19.79
2022-08-04T03:24:45.723Z,19.79
2022-08-04T03:25:57.067Z,19.79
2022-08-04T03:26:46.714Z,19.78
2022-08-04T03:27:45.695Z,19.77
2022-08-04T03:28:45.675Z,19.78
2022-08-04T03:29:45.655Z,19.78
2022-08-04T03:30:45.665Z,19.78
2022-08-04T03:31:45.645Z,19.75
2022-08-04T03:32:45.636Z,19.74
2022-08-04T03:33:45.595Z,19.75
2022-08-04T03:34:45.593Z,19.75
2022-08-04T03:35:45.576Z,19.74
2022-08-04T03:36:45.555Z,19.74
2022-08-04T03:37:45.565Z,19.75
2022-08-04T03:38:54.980Z,19.74
2022-08-04T03:39:46.659Z,19.72
2022-08-04T03:40:45.509Z,19.71
2022-08-04T03:41:55.300Z,19.71
2022-08-04T03:42:46.497Z,19.67
2022-08-04T03:43:59.007Z,19.66
2022-08-04T03:44:46.459Z,19.66
2022-08-04T03:45:45.427Z,19.66
2022-08-04T03:46:45.429Z,19.62
2022-08-04T03:47:45.445Z,19.56
2022-08-04T03:48:45.397Z,19.56
2022-08-04T03:49:45.386Z,19.55
2022-08-04T03:50:45.378Z,19.55
2022-08-04T03:51:45.357Z,19.53
2022-08-04T03:52:47.343Z,19.55
2022-08-04T03:53:45.369Z,19.56
2022-08-04T03:54:45.317Z,19.59
2022-08-04T03:55:45.306Z,19.57
2022-08-04T03:56:45.298Z,19.57
2022-08-04T03:57:45.289Z,19.57
2022-08-04T03:58:45.267Z,19.57
2022-08-04T03:59:48.707Z,19.60
2022-08-04T04:00:45.240Z,19.57
2022-08-04T04:02:02.120Z,19.57
2022-08-04T04:02:46.308Z,19.57
2022-08-04T04:03:45.198Z,19.56
2022-08-04T04:04:45.191Z,19.55
2022-08-04T04:05:59.983Z,19.55
2022-08-04T04:06:52.927Z,19.52
2022-08-04T04:07:46.768Z,19.52
2022-08-04T04:08:46.615Z,19.48
2022-08-04T04:09:57.592Z,19.49
2022-08-04T04:10:46.108Z,19.52
2022-08-04T04:11:57.523Z,19.48
2022-08-04T04:12:46.079Z,19.49
2022-08-04T04:13:52.362Z,19.47
2022-08-04T04:14:45.053Z,19.49
2022-08-04T04:15:49.813Z,19.47
2022-08-04T04:16:46.022Z,19.44
2022-08-04T04:17:45.021Z,19.44
2022-08-04T04:18:45.611Z,19.42
2022-08-04T04:19:44.992Z,19.44
2022-08-04T04:20:44.972Z,19.42
2022-08-04T04:21:45.023Z,19.42
2022-08-04T04:22:44.953Z,19.42
2022-08-04T04:23:44.943Z,19.41
2022-08-04T04:24:44.925Z,19.41
2022-08-04T04:25:44.894Z,19.39
2022-08-04T04:26:44.895Z,19.39
2022-08-04T04:27:44.874Z,19.41
2022-08-04T04:28:46.977Z,19.42
2022-08-04T04:29:44.847Z,19.42
2022-08-04T04:30:44.852Z,19.41
2022-08-04T04:31:44.825Z,19.42
2022-08-04T04:32:44.804Z,19.44
2022-08-04T04:33:44.821Z,19.44
2022-08-04T04:34:46.445Z,19.47
2022-08-04T04:35:44.764Z,19.45
2022-08-04T04:36:44.756Z,19.45
2022-08-04T04:37:48.886Z,19.44
2022-08-04T04:38:44.733Z,19.45
2022-08-04T04:39:44.737Z,19.47
2022-08-04T04:40:44.720Z,19.45
2022-08-04T04:41:44.686Z,19.47
2022-08-04T04:42:44.676Z,19.48
2022-08-04T04:43:50.752Z,19.49
2022-08-04T04:44:45.666Z,19.53
2022-08-04T04:45:44.626Z,19.53
2022-08-04T04:46:44.615Z,19.53
2022-08-04T04:48:08.181Z,19.56
2022-08-04T04:48:45.587Z,19.56
2022-08-04T04:49:44.631Z,19.59
2022-08-04T04:50:44.579Z,19.60
2022-08-04T04:51:44.556Z,19.64
2022-08-04T04:52:44.540Z,19.66
2022-08-04T04:53:44.545Z,19.67
2022-08-04T04:54:44.577Z,19.67
2022-08-04T04:55:48.082Z,19.67
2022-08-04T04:56:44.487Z,19.70
2022-08-04T04:57:53.853Z,19.74
2022-08-04T04:58:45.488Z,19.77
2022-08-04T04:59:44.440Z,19.79
2022-08-04T05:00:44.428Z,19.84
2022-08-04T05:01:44.407Z,19.85
2022-08-04T05:02:44.394Z,19.90
2022-08-04T05:03:44.398Z,19.93
2022-08-04T05:04:44.378Z,19.94
2022-08-04T05:05:44.350Z,19.96
2022-08-04T05:06:44.347Z,19.99
2022-08-04T05:07:44.317Z,20.00
2022-08-04T05:08:47.398Z,20.00
2022-08-04T05:09:44.307Z,20.00
2022-08-04T05:10:44.305Z,20.02
2022-08-04T05:11:44.280Z,20.02
2022-08-04T05:14:32.196Z,20.04
2022-08-04T05:14:35.067Z,20.07
2022-08-04T05:14:45.239Z,20.10
2022-08-04T05:15:44.257Z,20.08
2022-08-04T05:16:44.207Z,20.10
2022-08-04T05:17:44.215Z,20.11
2022-08-04T05:18:44.239Z,20.12
2022-08-04T05:19:44.172Z,20.12
2022-08-04T05:20:44.299Z,20.14
2022-08-04T05:21:44.147Z,20.15
2022-08-04T05:22:44.206Z,20.17
2022-08-04T05:23:44.137Z,20.19
2022-08-04T05:24:44.129Z,20.18
2022-08-04T05:25:59.464Z,20.21
2022-08-04T05:26:45.082Z,20.22
2022-08-04T05:27:44.070Z,20.26
2022-08-04T05:28:44.049Z,20.26
2022-08-04T05:29:44.157Z,20.24
2022-08-04T05:30:44.045Z,20.26
2022-08-04T05:31:44.032Z,20.27
2022-08-04T05:32:44.002Z,20.26
2022-08-04T05:33:43.981Z,20.27
2022-08-04T05:34:44.032Z,20.27
2022-08-04T05:36:17.730Z,20.30
2022-08-04T05:36:44.950Z,20.33
2022-08-04T05:37:43.934Z,20.34
2022-08-04T05:38:43.941Z,20.37
2022-08-04T05:39:44.007Z,20.42
2022-08-04T05:40:43.934Z,20.46
2022-08-04T05:41:45.414Z,20.49
2022-08-04T05:42:43.872Z,20.52
2022-08-04T05:43:43.868Z,20.52
2022-08-04T05:44:48.922Z,20.55
2022-08-04T05:45:44.822Z,20.58
2022-08-04T05:46:43.848Z,20.60
2022-08-04T05:47:43.841Z,20.60
2022-08-04T05:48:43.812Z,20.64
2022-08-04T05:49:43.768Z,20.66
2022-08-04T05:50:43.763Z,20.66
2022-08-04T05:51:43.754Z,20.67
2022-08-04T05:52:43.756Z,20.70
2022-08-04T05:53:43.753Z,20.71
2022-08-04T05:54:43.761Z,20.71
2022-08-04T05:55:49.046Z,20.75
2022-08-04T05:56:44.676Z,20.78
2022-08-04T05:57:43.664Z,20.78
2022-08-04T05:58:43.652Z,20.80
2022-08-04T05:59:43.645Z,20.82
2022-08-04T06:00:43.634Z,20.82
2022-08-04T06:01:55.454Z,20.85
2022-08-04T06:02:44.591Z,20.85
2022-08-04T06:03:43.586Z,20.85
2022-08-04T06:04:43.598Z,20.89
2022-08-04T06:05:43.555Z,20.89
2022-08-04T06:06:43.825Z,20.90
2022-08-04T06:08:10.953Z,20.93
2022-08-04T06:08:44.518Z,20.92
2022-08-04T06:09:43.524Z,20.95
2022-08-04T06:10:43.508Z,20.96
2022-08-04T06:12:03.897Z,21.01
2022-08-04T06:12:44.457Z,21.04
2022-08-04T06:13:48.743Z,21.07
2022-08-04T06:14:44.456Z,21.10
2022-08-04T06:15:44.445Z,21.11
2022-08-04T06:16:45.203Z,21.15
2022-08-04T06:19:57.460Z,21.19
2022-08-04T06:20:01.128Z,21.22
2022-08-04T06:20:01.951Z,21.22
2022-08-04T06:20:50.009Z,21.23
2022-08-04T06:21:44.338Z,21.25
2022-08-04T06:22:43.347Z,21.25
2022-08-04T06:23:53.697Z,21.28
2022-08-04T06:24:44.318Z,21.30
2022-08-04T06:25:43.294Z,21.32
2022-08-04T06:26:43.285Z,21.33
2022-08-04T06:27:43.261Z,21.37
2022-08-04T06:28:43.248Z,21.38
2022-08-04T06:29:51.256Z,21.41
2022-08-04T06:30:44.249Z,21.41
2022-08-04T06:32:28.710Z,21.41
2022-08-04T06:32:44.208Z,21.44
2022-08-04T06:33:54.325Z,21.45
2022-08-04T06:34:44.188Z,21.48
2022-08-04T06:35:43.140Z,21.50
2022-08-04T06:36:43.140Z,21.53
2022-08-04T06:37:44.390Z,21.53
2022-08-04T06:38:43.137Z,21.53
2022-08-04T06:39:43.122Z,21.54
2022-08-04T06:40:43.081Z,21.58
2022-08-04T06:42:20.705Z,21.59
2022-08-04T06:42:44.059Z,21.59
2022-08-04T06:43:43.769Z,21.62
2022-08-04T06:44:43.041Z,21.65
2022-08-04T06:45:43.019Z,21.66
2022-08-04T06:46:43.013Z,21.70
2022-08-04T06:47:42.991Z,21.75
2022-08-04T06:48:43.000Z,21.80
2022-08-04T06:49:55.122Z,21.84
2022-08-04T06:51:32.309Z,21.88
2022-08-04T06:51:49.348Z,21.92
2022-08-04T06:52:43.946Z,21.96
2022-08-04T06:53:42.931Z,21.97
2022-08-04T06:54:42.925Z,21.99
2022-08-04T06:55:42.883Z,22.03
2022-08-04T06:56:42.892Z,22.06
2022-08-04T06:57:42.853Z,22.08
2022-08-04T06:58:42.863Z,22.14
2022-08-04T06:59:42.844Z,22.16
2022-08-04T07:00:42.823Z,22.19
2022-08-04T07:01:42.854Z,22.25
2022-08-04T07:02:42.801Z,22.28
2022-08-04T07:03:43.024Z,22.31
2022-08-04T07:04:42.765Z,22.36
2022-08-04T07:05:42.753Z,22.37
2022-08-04T07:06:42.755Z,22.41
2022-08-04T07:07:57.671Z,22.43
2022-08-04T07:08:43.751Z,22.47
2022-08-04T07:09:42.698Z,22.52
2022-08-04T07:10:42.695Z,22.55
2022-08-04T07:11:44.717Z,22.58
2022-08-04T07:12:42.664Z,22.61
2022-08-04T07:13:45.173Z,22.63
2022-08-04T07:14:42.642Z,22.67
2022-08-04T07:15:42.626Z,22.68
2022-08-04T07:16:42.625Z,22.71
2022-08-04T07:17:42.595Z,22.76
2022-08-04T07:18:42.593Z,22.78
2022-08-04T07:19:42.577Z,22.83
2022-08-04T07:20:42.554Z,22.84
2022-08-04T07:21:42.548Z,22.84
2022-08-04T07:22:43.527Z,22.86
2022-08-04T07:23:42.556Z,22.89
2022-08-04T07:24:42.538Z,22.89
2022-08-04T07:26:00.914Z,22.93
2022-08-04T07:26:43.466Z,22.95
2022-08-04T07:27:47.521Z,22.99
2022-08-04T07:28:43.466Z,23.04
2022-08-04T07:29:42.458Z,23.07
2022-08-04T07:30:42.426Z,23.10
2022-08-04T07:31:42.427Z,23.13
2022-08-04T07:32:42.426Z,23.13
2022-08-04T07:33:42.436Z,23.14
2022-08-04T07:34:42.431Z,23.16
2022-08-04T07:36:08.327Z,23.16
2022-08-04T07:36:50.958Z,23.20
2022-08-04T07:37:43.339Z,23.26
2022-08-04T07:38:51.407Z,23.29
2022-08-04T07:39:47.684Z,23.34
2022-08-04T07:40:43.288Z,23.39
2022-08-04T07:41:45.100Z,23.42
2022-08-04T07:42:43.262Z,23.45
2022-08-04T07:43:42.291Z,23.47
2022-08-04T07:44:42.260Z,23.51
2022-08-04T07:45:42.241Z,23.55
2022-08-04T07:46:42.200Z,23.59
2022-08-04T07:47:42.209Z,23.64
2022-08-04T07:48:43.210Z,23.67
2022-08-04T07:49:56.012Z,23.71
2022-08-04T07:50:43.151Z,23.76
2022-08-04T07:51:42.150Z,23.79
2022-08-04T07:52:42.140Z,23.82
2022-08-04T07:53:54.319Z,23.84
2022-08-04T07:54:43.108Z,23.86
2022-08-04T07:55:42.101Z,23.92
2022-08-04T07:56:42.080Z,23.95
2022-08-04T07:57:42.392Z,24.01
2022-08-04T07:58:42.081Z,24.06
2022-08-04T07:59:42.045Z,24.10
2022-08-04T08:00:42.023Z,24.14
2022-08-04T08:01:42.023Z,24.18
2022-08-04T08:02:42.006Z,24.18
2022-08-04T08:03:42.142Z,24.21
2022-08-04T08:04:41.982Z,24.22
2022-08-04T08:06:17.272Z,24.25
2022-08-04T08:06:43.493Z,24.26
2022-08-04T08:07:51.043Z,24.28
2022-08-04T08:08:42.944Z,24.31
2022-08-04T08:09:41.913Z,24.32
2022-08-04T08:10:41.896Z,24.36
2022-08-04T08:12:37.369Z,24.37
2022-08-04T08:12:51.454Z,24.40
2022-08-04T08:13:42.894Z,24.43
2022-08-04T08:14:41.835Z,24.44
2022-08-04T08:15:41.824Z,24.47
2022-08-04T08:16:41.814Z,24.48
2022-08-04T08:17:58.760Z,24.50
2022-08-04T08:18:45.573Z,24.53
2022-08-04T08:19:42.780Z,24.56
2022-08-04T08:20:41.764Z,24.59
2022-08-04T08:21:58.935Z,24.59
2022-08-04T08:22:42.743Z,24.62
2022-08-04T08:23:41.715Z,24.63
2022-08-04T08:24:41.744Z,24.65
2022-08-04T08:25:41.746Z,24.69
2022-08-04T08:26:41.695Z,24.74
2022-08-04T08:27:55.766Z,24.75
2022-08-04T08:28:42.658Z,24.79
2022-08-04T08:29:41.656Z,24.85
2022-08-04T08:30:41.888Z,24.89
2022-08-04T08:31:58.302Z,24.93
2022-08-04T08:32:42.631Z,24.99
2022-08-04T08:33:41.615Z,25.03
2022-08-04T08:34:41.618Z,25.07
2022-08-04T08:35:53.104Z,25.11
2022-08-04T08:36:42.547Z,25.15
2022-08-04T08:37:42.171Z,25.18
2022-08-04T08:38:41.540Z,25.19
2022-08-04T08:39:41.667Z,25.22
2022-08-04T08:40:41.598Z,25.25
2022-08-04T08:41:41.570Z,25.36
2022-08-04T08:42:41.578Z,25.46
2022-08-04T08:44:05.367Z,25.55
2022-08-04T08:44:42.461Z,25.59
2022-08-04T08:45:41.555Z,25.61
2022-08-04T08:46:49.363Z,25.67
2022-08-04T08:48:04.620Z,25.68
2022-08-04T08:48:42.400Z,25.70
2022-08-04T08:50:03.061Z,25.71
2022-08-04T08:50:42.361Z,25.73
2022-08-04T08:51:42.643Z,25.76
2022-08-04T08:52:56.424Z,25.77
2022-08-04T08:53:42.350Z,25.78
2022-08-04T08:54:41.318Z,25.78
2022-08-04T08:55:41.324Z,25.81
2022-08-04T08:56:41.304Z,25.85
2022-08-04T08:57:59.263Z,25.88
2022-08-04T08:58:42.272Z,25.92
2022-08-04T08:59:41.261Z,25.95
2022-08-04T09:00:41.248Z,25.99
2022-08-04T09:01:41.975Z,26.06
2022-08-04T09:02:41.242Z,26.11
2022-08-04T09:03:41.210Z,26.18
2022-08-04T09:04:41.189Z,26.22
2022-08-04T09:05:41.183Z,26.26
2022-08-04T09:06:41.164Z,26.29
2022-08-04T09:07:41.202Z,26.30
2022-08-04T09:08:41.133Z,26.37
2022-08-04T09:09:41.133Z,26.39
2022-08-04T09:10:41.107Z,26.45
2022-08-04T09:11:41.123Z,26.48
2022-08-04T09:12:41.094Z,26.53
2022-08-04T09:13:41.104Z,26.59
2022-08-04T09:14:41.063Z,26.63
2022-08-04T09:15:41.072Z,26.66
2022-08-04T09:16:41.357Z,26.70
2022-08-04T09:17:41.074Z,26.76
2022-08-04T09:18:41.033Z,26.82
2022-08-04T09:19:40.993Z,26.85
2022-08-04T09:20:41.195Z,26.89
2022-08-04T09:21:41.042Z,26.93
2022-08-04T09:22:41.032Z,27.00
2022-08-04T09:23:41.044Z,27.07
2022-08-04T09:24:40.926Z,27.13
2022-08-04T09:25:40.916Z,27.18
2022-08-04T09:26:41.017Z,27.23
2022-08-04T09:27:40.887Z,27.28
2022-08-04T09:28:56.023Z,27.30
2022-08-04T09:29:41.857Z,27.34
2022-08-04T09:30:40.847Z,27.35
2022-08-04T09:31:48.653Z,27.40
2022-08-04T09:32:41.818Z,27.44
2022-08-04T09:33:44.650Z,27.45
2022-08-04T09:34:41.894Z,27.47
2022-08-04T09:35:40.792Z,27.50
2022-08-04T09:36:40.788Z,27.53
2022-08-04T09:37:45.859Z,27.57
2022-08-04T09:38:41.812Z,27.66
2022-08-04T09:39:41.114Z,27.78
2022-08-04T09:40:53.054Z,27.85
2022-08-04T09:41:49.353Z,27.94
2022-08-04T09:42:41.686Z,27.97
2022-08-04T09:43:57.065Z,28.00
2022-08-04T09:44:50.089Z,28.00
2022-08-04T09:45:43.380Z,27.98
2022-08-04T09:46:40.635Z,27.98
2022-08-04T09:47:40.994Z,28.03
2022-08-04T09:48:40.621Z,28.09
2022-08-04T09:49:40.608Z,28.12
2022-08-04T09:50:40.625Z,28.18
2022-08-04T09:51:58.451Z,28.20
2022-08-04T09:52:41.558Z,28.20
2022-08-04T09:53:40.680Z,28.23
2022-08-04T09:54:40.536Z,28.27
2022-08-04T09:55:54.831Z,28.28
2022-08-04T09:56:41.493Z,28.34
2022-08-04T09:57:40.500Z,28.38
2022-08-04T09:58:40.493Z,28.46
2022-08-04T09:59:40.469Z,28.53
2022-08-04T10:00:42.127Z,28.60
2022-08-04T10:01:40.444Z,28.70
2022-08-04T10:02:40.541Z,28.77
2022-08-04T10:03:40.432Z,28.83
2022-08-04T10:04:40.405Z,28.89
2022-08-04T10:05:40.391Z,28.97
2022-08-04T10:06:40.524Z,29.06
2022-08-04T10:07:40.373Z,29.10
2022-08-04T10:08:40.363Z,29.15
2022-08-04T10:09:40.353Z,29.18
2022-08-04T10:10:40.345Z,29.18
2022-08-04T10:11:56.232Z,29.18
2022-08-04T10:12:41.295Z,29.21
2022-08-04T10:13:47.367Z,29.24
2022-08-04T10:14:40.270Z,29.34
2022-08-04T10:15:40.260Z,29.42
2022-08-04T10:16:40.239Z,29.47
2022-08-04T10:17:43.603Z,29.52
2022-08-04T10:18:41.240Z,29.55
2022-08-04T10:19:40.208Z,29.58
2022-08-04T10:20:44.822Z,29.62
2022-08-04T10:21:59.671Z,29.74
2022-08-04T10:23:02.143Z,29.84
2022-08-04T10:23:56.624Z,29.94
2022-08-04T10:24:41.150Z,30.03
2022-08-04T10:26:05.895Z,30.10
2022-08-04T10:26:41.111Z,30.16
2022-08-04T10:27:40.109Z,30.26
2022-08-04T10:28:40.084Z,30.31
2022-08-04T10:29:40.099Z,30.38
2022-08-04T10:30:40.061Z,30.40
2022-08-04T10:31:40.050Z,30.43
2022-08-04T10:32:42.961Z,30.44
2022-08-04T10:33:40.032Z,30.48
2022-08-04T10:34:40.022Z,30.44
2022-08-04T10:35:40.001Z,30.44
2022-08-04T10:36:39.983Z,30.44
2022-08-04T10:37:58.936Z,30.43
2022-08-04T10:38:40.974Z,30.39
2022-08-04T10:39:41.994Z,30.39
2022-08-04T10:40:39.934Z,30.46
2022-08-04T10:41:39.924Z,30.52
2022-08-04T10:42:39.905Z,30.55
2022-08-04T10:43:39.903Z,30.58
2022-08-04T10:44:41.818Z,30.63
2022-08-04T10:45:39.867Z,30.69
2022-08-04T10:46:39.854Z,30.76
2022-08-04T10:47:39.844Z,30.83
2022-08-04T10:48:40.230Z,30.86
2022-08-04T10:49:39.836Z,30.95
2022-08-04T10:50:39.796Z,30.99
2022-08-04T10:51:57.637Z,31.00
2022-08-04T10:52:40.777Z,30.98
2022-08-04T10:53:39.786Z,31.00
2022-08-04T10:54:39.747Z,31.07
2022-08-04T10:56:07.578Z,31.11
2022-08-04T10:56:40.716Z,31.14
2022-08-04T10:57:39.718Z,31.20
2022-08-04T10:58:47.687Z,31.25
2022-08-04T10:59:40.705Z,31.30
2022-08-04T11:00:39.671Z,31.35
2022-08-04T11:02:00.570Z,31.42
2022-08-04T11:02:40.716Z,31.48
2022-08-04T11:03:39.638Z,31.51
2022-08-04T11:04:39.636Z,31.59
2022-08-04T11:05:43.897Z,31.64
2022-08-04T11:06:40.598Z,31.69
2022-08-04T11:07:39.590Z,31.69
2022-08-04T11:08:39.570Z,31.66
2022-08-04T11:09:39.578Z,31.70
2022-08-04T11:10:39.554Z,31.72
2022-08-04T11:12:01.092Z,31.74
2022-08-04T11:12:40.513Z,31.77
2022-08-04T11:13:42.722Z,31.78
2022-08-04T11:14:40.511Z,31.82
2022-08-04T11:15:39.484Z,31.92
2022-08-04T11:16:39.468Z,31.97
2022-08-04T11:17:39.459Z,32.01
2022-08-04T11:18:39.439Z,32.00
2022-08-04T11:19:44.734Z,32.01
2022-08-04T11:20:40.416Z,32.07
2022-08-04T11:21:39.424Z,32.12
2022-08-04T11:22:39.384Z,32.19
2022-08-04T11:23:39.381Z,32.27
2022-08-04T11:24:39.370Z,32.38
2022-08-04T11:25:39.342Z,32.45
2022-08-04T11:26:39.329Z,32.54
2022-08-04T11:27:39.325Z,32.56
2022-08-04T11:28:39.311Z,32.63
2022-08-04T11:29:39.324Z,32.68
2022-08-04T11:30:39.274Z,32.78
2022-08-04T11:31:39.283Z,32.75
2022-08-04T11:32:39.265Z,32.63
2022-08-04T11:33:39.245Z,32.51
2022-08-04T11:34:39.255Z,32.45
2022-08-04T11:35:39.226Z,32.35
2022-08-04T11:36:39.205Z,32.24
2022-08-04T11:37:39.212Z,32.20
2022-08-04T11:38:39.187Z,32.29
2022-08-04T11:39:39.255Z,32.37
2022-08-04T11:40:39.166Z,32.42
2022-08-04T11:41:39.145Z,32.39
2022-08-04T11:42:39.143Z,32.31
2022-08-04T11:44:00.522Z,32.29
2022-08-04T11:44:40.135Z,32.31
2022-08-04T11:45:39.094Z,32.30
2022-08-04T11:46:39.087Z,32.24
2022-08-04T11:47:39.077Z,32.22
2022-08-04T11:48:39.060Z,32.27
2022-08-04T11:49:56.946Z,32.30
2022-08-04T11:50:40.028Z,32.24
2022-08-04T11:51:39.009Z,32.20
2022-08-04T11:52:39.013Z,32.12
2022-08-04T11:53:39.003Z,32.07
2022-08-04T11:54:38.998Z,32.01
2022-08-04T11:56:06.908Z,31.98
2022-08-04T11:56:39.959Z,32.04
2022-08-04T11:57:38.972Z,32.11
2022-08-04T11:58:38.945Z,32.22
2022-08-04T11:59:38.938Z,32.19
2022-08-04T12:00:38.908Z,32.19
2022-08-04T12:01:38.899Z,32.29
2022-08-04T12:02:38.973Z,32.42
2022-08-04T12:03:38.862Z,32.46
2022-08-04T12:04:38.871Z,32.59
2022-08-04T12:05:38.832Z,32.68
2022-08-04T12:06:38.839Z,32.76
2022-08-04T12:07:41.442Z,32.73
2022-08-04T12:08:38.812Z,32.63
2022-08-04T12:09:38.804Z,32.53
2022-08-04T12:10:42.289Z,32.44
2022-08-04T12:11:38.774Z,32.42
2022-08-04T12:12:38.761Z,32.59
2022-08-04T12:13:38.732Z,32.68
2022-08-04T12:14:38.756Z,32.79
2022-08-04T12:15:38.714Z,32.88
2022-08-04T12:16:38.713Z,32.88
2022-08-04T12:17:52.351Z,32.86
2022-08-04T12:18:39.683Z,32.86
2022-08-04T12:20:04.180Z,32.82
2022-08-04T12:20:41.154Z,32.76
2022-08-04T12:21:38.635Z,32.68
2022-08-04T12:22:40.938Z,32.61
2022-08-04T12:23:38.615Z,32.60
2022-08-04T12:24:38.615Z,32.63
2022-08-04T12:25:43.108Z,32.78
2022-08-04T12:26:39.576Z,32.91
2022-08-04T12:27:38.566Z,32.95
2022-08-04T12:29:07.211Z,33.03
2022-08-04T12:29:39.554Z,33.15
2022-08-04T12:31:02.139Z,33.28
2022-08-04T12:31:39.507Z,33.39
2022-08-04T12:32:38.496Z,33.53
2022-08-04T12:34:03.792Z,33.51
2022-08-04T12:34:39.498Z,33.60
2022-08-04T12:35:38.464Z,33.63
2022-08-04T12:36:39.461Z,33.70
2022-08-04T12:37:38.435Z,33.73
2022-08-04T12:38:38.459Z,33.82
2022-08-04T12:40:17.028Z,33.88
2022-08-04T12:40:39.419Z,33.94
2022-08-04T12:41:38.386Z,34.07
2022-08-04T12:42:38.379Z,34.21
2022-08-04T12:43:38.347Z,34.28
2022-08-04T12:44:39.166Z,34.21
2022-08-04T12:45:38.364Z,34.07
2022-08-04T12:46:38.331Z,34.00
2022-08-04T12:47:38.687Z,33.94
2022-08-04T12:48:38.300Z,33.95
2022-08-04T12:49:38.290Z,33.98
2022-08-04T12:50:38.324Z,34.02
2022-08-04T12:52:07.383Z,34.06
2022-08-04T12:53:00.295Z,34.09